createdAt,value
2022-12-08T00:08:24.057Z,71.68
2022-12-08T00:10:52.443Z,71.27
2022-12-08T00:13:19.894Z,85.32
2022-12-08T00:15:47.889Z,79.43
2022-12-08T00:18:15.444Z,81.43
2022-12-08T00:20:43.397Z,82.13
2022-12-08T00:23:10.974Z,85.03
2022-12-08T00:25:41.690Z,84.25
2022-12-08T00:28:09.310Z,77.32
2022-12-08T00:30:40.694Z,72.95
2022-12-08T00:33:08.542Z,60.80
2022-12-08T00:35:41.540Z,62.60
2022-12-08T00:38:36.943Z,73.95
2022-12-08T00:41:09.564Z,63.38
2022-12-08T00:43:37.114Z,61.72
2022-12-08T00:46:05.205Z,62.05
2022-12-08T00:48:32.785Z,90.87
2022-12-08T00:51:00.662Z,56.15
2022-12-08T00:53:28.384Z,58.13
2022-12-08T00:55:56.455Z,51.65
2022-12-08T00:58:23.960Z,76.47
2022-12-08T01:00:51.823Z,66.40
2022-12-08T01:03:19.706Z,63.88
2022-12-08T01:05:47.551Z,57.67
2022-12-08T01:08:15.241Z,66.30
2022-12-08T01:10:43.621Z,54.53
2022-12-08T01:13:11.636Z,80.17
2022-12-08T01:15:39.658Z,77.05
2022-12-08T01:18:07.652Z,68.25
2022-12-08T01:20:35.452Z,55.67
2022-12-08T01:23:03.084Z,72.30
2022-12-08T01:25:30.948Z,58.13
2022-12-08T01:27:58.558Z,63.65
2022-12-08T01:30:53.049Z,55.47
2022-12-08T01:33:20.530Z,71.97
2022-12-08T01:35:49.442Z,74.60
2022-12-08T01:38:17.275Z,57.77
2022-12-08T01:40:45.470Z,70.68
2022-12-08T01:43:22.001Z,62.88
2022-12-08T01:45:50.006Z,75.97
2022-12-08T01:48:24.483Z,65.82
2022-12-08T01:50:54.433Z,77.03
2022-12-08T01:53:30.753Z,63.95
2022-12-08T01:56:20.934Z,91.65
2022-12-08T01:58:51.293Z,78.88
2022-12-08T02:01:19.245Z,60.75
2022-12-08T02:04:01.064Z,58.93
2022-12-08T02:06:35.235Z,87.50
2022-12-08T02:09:07.718Z,106.30
2022-12-08T02:11:41.243Z,85.60
2022-12-08T02:14:10.746Z,120.22
2022-12-08T02:16:57.028Z,80.53
2022-12-08T02:20:14.324Z,71.03
2022-12-08T02:23:22.773Z,51.25
2022-12-08T02:26:07.164Z,49.63
2022-12-08T02:29:17.237Z,54.13
2022-12-08T02:31:47.393Z,77.23
2022-12-08T02:34:45.879Z,52.55
2022-12-08T02:37:30.050Z,45.13
2022-12-08T02:40:08.739Z,43.17
2022-12-08T02:42:45.874Z,59.72
2022-12-08T02:45:50.706Z,56.60
2022-12-08T02:48:18.322Z,58.22
2022-12-08T02:50:46.299Z,57.22
2022-12-08T02:55:46.772Z,61.65
2022-12-08T02:58:23.978Z,46.63
2022-12-08T03:01:32.895Z,46.28
2022-12-08T03:04:18.374Z,50.08
2022-12-08T03:06:54.689Z,43.83
2022-12-08T03:09:45.794Z,49.53
2022-12-08T03:12:34.832Z,78.80
2022-12-08T03:15:13.824Z,66.65
2022-12-08T03:17:47.675Z,60.67
2022-12-08T03:20:23.994Z,74.82
2022-12-08T03:22:56.105Z,51.42
2022-12-08T03:25:34.381Z,43.97
2022-12-08T03:28:02.390Z,43.95
2022-12-08T03:30:33.522Z,53.22
2022-12-08T03:33:10.854Z,41.47
2022-12-08T03:35:40.982Z,38.83
2022-12-08T03:38:15.061Z,54.63
2022-12-08T03:41:30.518Z,43.40
2022-12-08T03:44:00.072Z,42.50
2022-12-08T03:48:57.799Z,55.88
2022-12-08T03:51:25.584Z,44.33
2022-12-08T03:53:53.520Z,58.90
2022-12-08T03:56:27.473Z,54.83
2022-12-08T03:58:55.911Z,62.83
2022-12-08T04:01:23.857Z,38.45
2022-12-08T04:03:52.623Z,67.63
2022-12-08T04:06:21.162Z,67.30
2022-12-08T04:08:50.036Z,58.00
2022-12-08T04:11:19.977Z,46.88
2022-12-08T04:13:48.340Z,55.17
2022-12-08T04:16:18.328Z,48.00
2022-12-08T04:18:46.760Z,49.03
2022-12-08T04:21:14.494Z,50.17
2022-12-08T04:23:43.388Z,45.15
2022-12-08T04:26:11.222Z,43.63
2022-12-08T04:28:39.123Z,48.53
2022-12-08T04:31:07.163Z,46.75
2022-12-08T04:33:35.654Z,49.60
2022-12-08T04:36:05.132Z,42.80
2022-12-08T04:38:34.053Z,44.00
2022-12-08T04:41:02.457Z,43.27
2022-12-08T04:43:36.318Z,46.33
2022-12-08T04:46:08.401Z,39.13
2022-12-08T04:48:40.820Z,39.03
2022-12-08T04:51:19.980Z,43.78
2022-12-08T04:53:48.680Z,42.00
2022-12-08T04:56:18.641Z,43.97
2022-12-08T04:58:47.356Z,43.20
2022-12-08T05:01:15.429Z,43.15
2022-12-08T05:03:43.536Z,43.63
2022-12-08T05:06:13.700Z,41.27
2022-12-08T05:08:43.297Z,46.17
2022-12-08T05:11:12.635Z,39.30
2022-12-08T05:13:40.688Z,43.95
2022-12-08T05:16:14.331Z,43.33
2022-12-08T05:18:43.189Z,55.17
2022-12-08T05:21:11.191Z,41.35
2022-12-08T05:23:39.313Z,47.42
2022-12-08T05:26:07.255Z,40.55
2022-12-08T05:28:43.515Z,38.33
2022-12-08T05:31:14.428Z,36.30
2022-12-08T05:33:43.124Z,42.17
2022-12-08T05:36:16.426Z,85.90
2022-12-08T05:38:45.370Z,46.33
2022-12-08T05:41:19.094Z,36.03
2022-12-08T05:43:49.563Z,34.90
2022-12-08T05:46:17.643Z,36.78
2022-12-08T05:48:47.593Z,34.40
2022-12-08T05:51:21.995Z,36.92
2022-12-08T05:53:52.558Z,38.00
2022-12-08T05:56:21.078Z,43.50
2022-12-08T05:58:49.220Z,40.80
2022-12-08T06:01:28.922Z,39.22
2022-12-08T06:03:59.184Z,38.75
2022-12-08T06:06:27.306Z,42.38
2022-12-08T06:08:55.770Z,41.03
2022-12-08T06:11:29.542Z,38.70
2022-12-08T06:13:58.921Z,41.47
2022-12-08T06:16:28.258Z,42.00
2022-12-08T06:19:01.297Z,37.75
2022-12-08T06:21:29.113Z,36.60
2022-12-08T06:23:57.173Z,41.80
2022-12-08T06:26:25.319Z,36.63
2022-12-08T06:28:53.448Z,39.78
2022-12-08T06:31:26.816Z,46.03
2022-12-08T06:33:55.587Z,35.80
2022-12-08T06:36:25.484Z,43.55
2022-12-08T06:38:54.235Z,41.40
2022-12-08T06:41:22.306Z,43.25
2022-12-08T06:43:50.873Z,42.38
2022-12-08T06:46:19.909Z,37.67
2022-12-08T06:48:50.791Z,39.80
2022-12-08T06:51:21.436Z,40.60
2022-12-08T06:53:49.598Z,34.30
2022-12-08T06:56:20.331Z,37.35
2022-12-08T06:58:52.509Z,40.90
2022-12-08T07:01:25.410Z,37.95
2022-12-08T07:03:53.718Z,36.00
2022-12-08T07:06:24.418Z,43.85
2022-12-08T07:08:53.303Z,40.75
2022-12-08T07:11:21.974Z,38.90
2022-12-08T07:13:51.411Z,40.55
2022-12-08T07:16:19.233Z,39.13
2022-12-08T07:18:47.490Z,45.28
2022-12-08T07:21:15.526Z,47.35
2022-12-08T07:23:46.812Z,40.17
2022-12-08T07:26:14.994Z,39.72
2022-12-08T07:28:43.916Z,41.28
2022-12-08T07:31:29.421Z,41.85
2022-12-08T07:33:58.402Z,51.03
2022-12-08T07:36:27.266Z,76.47
2022-12-08T07:38:55.607Z,55.25
2022-12-08T07:41:24.880Z,50.80
2022-12-08T07:43:57.517Z,41.55
2022-12-08T07:46:26.631Z,40.67
2022-12-08T07:48:55.735Z,35.77
2022-12-08T07:51:25.233Z,40.50
2022-12-08T07:53:55.050Z,32.67
2022-12-08T07:56:23.583Z,37.33
2022-12-08T07:58:51.886Z,43.88
2022-12-08T08:01:31.311Z,49.27
2022-12-08T08:04:02.240Z,51.08
2022-12-08T08:06:30.133Z,53.15
2022-12-08T08:08:58.177Z,47.80
2022-12-08T08:11:27.551Z,45.35
2022-12-08T08:13:58.715Z,36.73
2022-12-08T08:16:26.765Z,39.33
2022-12-08T08:18:55.411Z,34.22
2022-12-08T08:24:14.784Z,37.95
2022-12-08T08:26:42.384Z,35.90
2022-12-08T08:29:13.113Z,36.30
2022-12-08T08:31:41.011Z,33.35
2022-12-08T08:34:09.447Z,37.10
2022-12-08T08:36:37.245Z,36.92
2022-12-08T08:39:07.135Z,37.40
2022-12-08T08:41:35.781Z,42.15
2022-12-08T08:44:05.553Z,36.30
2022-12-08T08:46:33.409Z,43.92
2022-12-08T08:49:01.841Z,91.65
2022-12-08T08:51:29.501Z,60.87
2022-12-08T08:53:58.410Z,48.92
2022-12-08T08:56:26.365Z,55.58
2022-12-08T08:58:54.672Z,34.30
2022-12-08T09:01:26.636Z,34.22
2022-12-08T09:03:57.190Z,38.03
2022-12-08T09:06:26.051Z,83.00
2022-12-08T09:08:54.524Z,94.97
2022-12-08T09:11:23.803Z,217.77
2022-12-08T09:13:55.173Z,45.10
2022-12-08T09:16:23.948Z,38.40
2022-12-08T09:18:54.260Z,65.72
2022-12-08T09:21:26.302Z,71.68
2022-12-08T09:23:56.794Z,42.15
2022-12-08T09:26:25.409Z,90.20
2022-12-08T09:28:55.236Z,44.17
2022-12-08T09:31:25.633Z,43.70
2022-12-08T09:33:53.892Z,33.67
2022-12-08T09:36:23.646Z,48.95
2022-12-08T09:38:53.963Z,99.68
2022-12-08T09:41:40.356Z,49.77
2022-12-08T09:44:44.464Z,93.65
2022-12-08T09:47:19.813Z,83.03
2022-12-08T09:50:30.624Z,110.97
2022-12-08T09:53:23.565Z,36.92
2022-12-08T09:56:04.789Z,31.20
2022-12-08T09:59:11.486Z,33.53
2022-12-08T10:01:43.696Z,34.75
2022-12-08T10:04:34.569Z,28.92
2022-12-08T10:07:27.620Z,29.55
2022-12-08T10:10:16.805Z,31.50
2022-12-08T10:13:30.503Z,37.20
2022-12-08T10:16:23.015Z,38.28
2022-12-08T10:19:01.795Z,33.67
2022-12-08T10:21:32.993Z,30.58
2022-12-08T10:24:11.192Z,37.10
2022-12-08T10:26:43.417Z,38.78
2022-12-08T10:29:14.373Z,33.28
2022-12-08T10:31:44.239Z,33.17
2022-12-08T10:34:24.573Z,33.67
2022-12-08T10:36:52.993Z,29.27
2022-12-08T10:39:38.914Z,29.42
2022-12-08T10:42:15.367Z,37.05
2022-12-08T10:45:03.128Z,31.67
2022-12-08T10:47:37.522Z,32.33
2022-12-08T10:50:28.934Z,32.53
2022-12-08T10:53:18.924Z,31.75
2022-12-08T10:55:51.357Z,34.00
2022-12-08T10:58:32.230Z,28.13
2022-12-08T11:01:22.364Z,36.20
2022-12-08T11:03:55.668Z,47.83
2022-12-08T11:06:29.149Z,50.25
2022-12-08T11:09:04.933Z,56.05
2022-12-08T11:12:01.955Z,52.03
2022-12-08T11:14:32.743Z,36.28
2022-12-08T11:17:07.232Z,43.23
2022-12-08T11:19:45.028Z,62.42
2022-12-08T11:22:40.128Z,32.50
2022-12-08T11:25:07.998Z,83.05
2022-12-08T11:27:38.106Z,35.90
2022-12-08T11:30:46.048Z,34.27
2022-12-08T11:33:22.460Z,27.95
2022-12-08T11:36:00.944Z,32.72
2022-12-08T11:38:31.368Z,29.05
2022-12-08T11:41:15.511Z,45.25
2022-12-08T11:43:56.738Z,29.57
2022-12-08T11:46:30.935Z,46.58
2022-12-08T11:49:57.508Z,30.98
2022-12-08T11:52:32.986Z,29.13
2022-12-08T11:55:24.492Z,35.33
2022-12-08T11:57:53.104Z,37.27
2022-12-08T12:00:21.891Z,34.45
2022-12-08T12:03:01.632Z,36.35
2022-12-08T12:06:13.224Z,47.70
2022-12-08T12:09:19.017Z,34.25
2022-12-08T12:12:14.448Z,43.27
2022-12-08T12:15:19.766Z,74.70
2022-12-08T12:18:32.261Z,52.08
2022-12-08T12:21:13.237Z,62.88
2022-12-08T12:23:53.526Z,125.07
2022-12-08T12:26:28.067Z,32.43
2022-12-08T12:29:03.550Z,31.52
2022-12-08T12:31:42.019Z,26.42
2022-12-08T12:34:20.926Z,28.00
2022-12-08T12:36:52.673Z,55.50
2022-12-08T12:39:29.823Z,48.83
2022-12-08T12:42:00.253Z,74.82
2022-12-08T12:44:28.674Z,50.10
2022-12-08T12:47:03.531Z,57.22
2022-12-08T12:49:46.083Z,45.05
2022-12-08T12:52:16.518Z,34.10
2022-12-08T12:55:05.824Z,39.33
2022-12-08T12:57:38.165Z,37.83
2022-12-08T13:00:19.035Z,43.10
2022-12-08T13:02:51.820Z,33.35
2022-12-08T13:05:48.223Z,39.13
2022-12-08T13:08:27.688Z,37.10
2022-12-08T13:11:11.839Z,32.33
2022-12-08T13:13:57.732Z,33.40
2022-12-08T13:16:31.541Z,30.27
2022-12-08T13:19:06.109Z,29.60
2022-12-08T13:21:38.111Z,44.28
2022-12-08T13:24:18.125Z,30.15
2022-12-08T13:27:05.739Z,35.42
2022-12-08T13:29:38.212Z,40.83
2022-12-08T13:32:10.231Z,31.13
2022-12-08T13:34:52.223Z,42.08
2022-12-08T13:37:29.170Z,44.00
2022-12-08T13:40:02.730Z,39.67
2022-12-08T13:42:43.396Z,61.13
2022-12-08T13:48:41.649Z,33.85
2022-12-08T13:57:11.701Z,33.22
2022-12-08T13:59:45.753Z,41.67
2022-12-08T14:02:27.145Z,35.70
2022-12-08T14:07:55.463Z,31.65
2022-12-08T14:10:30.844Z,31.80
2022-12-08T14:13:04.539Z,33.53
2022-12-08T14:15:37.581Z,34.53
2022-12-08T14:18:31.542Z,33.80
2022-12-08T14:21:28.939Z,35.08
2022-12-08T14:24:03.388Z,40.55
2022-12-08T14:26:35.883Z,39.07
2022-12-08T14:29:03.701Z,36.60
2022-12-08T14:31:32.152Z,37.28
2022-12-08T14:34:00.099Z,41.90
2022-12-08T14:36:33.618Z,37.05
2022-12-08T14:39:01.436Z,50.17
2022-12-08T14:41:33.506Z,45.55
2022-12-08T14:44:02.429Z,58.92
2022-12-08T14:46:30.623Z,61.08
2022-12-08T14:48:59.165Z,70.15
2022-12-08T14:51:33.398Z,78.63
2022-12-08T14:54:01.508Z,70.65
2022-12-08T14:56:36.740Z,61.60
2022-12-08T14:59:25.802Z,122.35
2022-12-08T15:02:09.529Z,50.80
2022-12-08T15:04:44.470Z,49.30
2022-12-08T15:07:24.951Z,51.58
2022-12-08T15:10:10.221Z,49.53
2022-12-08T15:12:38.349Z,59.10
2022-12-08T15:15:08.826Z,66.10
2022-12-08T15:17:40.732Z,59.23
2022-12-08T15:20:49.242Z,51.95
2022-12-08T15:23:26.717Z,57.90
2022-12-08T15:25:55.989Z,74.32
2022-12-08T15:28:30.533Z,67.00
2022-12-08T15:30:59.347Z,56.10
2022-12-08T15:33:28.043Z,55.00
2022-12-08T15:35:59.573Z,74.47
2022-12-08T15:38:29.169Z,52.45
2022-12-08T15:41:01.977Z,56.33
2022-12-08T15:43:32.206Z,57.10
2022-12-08T15:46:05.252Z,60.22
2022-12-08T15:48:33.470Z,55.97
2022-12-08T15:51:27.800Z,60.08
2022-12-08T15:53:55.961Z,55.08
2022-12-08T15:56:28.111Z,52.43
2022-12-08T15:59:01.636Z,63.15
2022-12-08T16:01:29.676Z,68.10
2022-12-08T16:09:44.076Z,72.80
2022-12-08T16:13:19.912Z,54.97
2022-12-08T16:15:52.972Z,65.38
2022-12-08T16:18:18.251Z,63.25
2022-12-08T16:23:43.662Z,51.57
2022-12-08T16:26:35.465Z,44.13
2022-12-08T16:29:05.321Z,70.05
2022-12-08T16:31:33.425Z,53.15
2022-12-08T16:34:01.620Z,51.15
2022-12-08T16:36:29.708Z,58.03
2022-12-08T16:38:57.446Z,56.10
2022-12-08T16:41:44.160Z,63.95
2022-12-08T16:44:12.107Z,65.45
2022-12-08T16:46:40.168Z,69.50
2022-12-08T16:49:11.582Z,70.00
2022-12-08T16:51:42.719Z,94.38
2022-12-08T16:54:10.353Z,199.55
2022-12-08T16:56:38.329Z,95.75
2022-12-08T16:59:06.147Z,81.85
2022-12-08T17:01:36.320Z,96.50
2022-12-08T17:06:58.341Z,135.68
2022-12-08T17:09:27.214Z,128.30
2022-12-08T17:12:00.273Z,124.97
2022-12-08T17:14:34.903Z,146.50
2022-12-08T17:17:03.208Z,142.20
2022-12-08T17:19:30.977Z,120.65
2022-12-08T17:21:59.321Z,93.68
2022-12-08T17:24:29.492Z,69.28
2022-12-08T17:26:58.814Z,67.03
2022-12-08T17:29:26.568Z,63.17
2022-12-08T17:31:54.968Z,53.00
2022-12-08T17:34:22.845Z,53.75
2022-12-08T17:36:51.621Z,47.72
2022-12-08T17:39:19.453Z,54.90
2022-12-08T17:41:48.255Z,70.60
2022-12-08T17:44:18.702Z,76.45
2022-12-08T17:46:52.606Z,77.30
2022-12-08T17:50:11.681Z,62.72
2022-12-08T17:53:07.719Z,56.93
2022-12-08T17:55:37.090Z,64.20
2022-12-08T17:58:06.103Z,85.50
2022-12-08T18:00:39.701Z,90.07
2022-12-08T18:03:08.164Z,125.30
2022-12-08T18:05:36.029Z,92.87
2022-12-08T18:08:31.187Z,90.22
2022-12-08T18:10:59.470Z,108.55
2022-12-08T18:13:27.749Z,91.43
2022-12-08T18:15:55.713Z,71.50
2022-12-08T18:18:24.087Z,95.67
2022-12-08T18:20:52.428Z,79.47
2022-12-08T18:23:20.627Z,82.40
2022-12-08T18:25:48.907Z,89.90
2022-12-08T18:28:16.945Z,90.45
2022-12-08T18:30:45.169Z,90.00
2022-12-08T18:33:13.335Z,96.75
2022-12-08T18:35:45.381Z,78.60
2022-12-08T18:38:13.913Z,74.63
2022-12-08T18:40:42.064Z,53.60
2022-12-08T18:43:10.476Z,62.43
2022-12-08T18:45:40.006Z,57.95
2022-12-08T18:48:09.414Z,57.25
2022-12-08T18:50:37.218Z,53.60
2022-12-08T18:53:08.209Z,54.03
2022-12-08T18:55:37.942Z,53.73
2022-12-08T18:58:06.206Z,54.45
2022-12-08T19:00:34.074Z,67.63
2022-12-08T19:03:02.553Z,76.05
2022-12-08T19:05:30.601Z,87.05
2022-12-08T19:07:58.872Z,63.37
2022-12-08T19:10:26.783Z,61.92
2022-12-08T19:12:54.988Z,58.30
2022-12-08T19:15:22.919Z,59.55
2022-12-08T19:17:51.105Z,69.05
2022-12-08T19:20:18.846Z,103.70
2022-12-08T19:22:46.932Z,102.82
2022-12-08T19:25:15.080Z,64.63
2022-12-08T19:27:44.579Z,52.40
2022-12-08T19:30:14.173Z,52.30
2022-12-08T19:32:42.318Z,54.30
2022-12-08T19:35:10.331Z,49.90
2022-12-08T19:37:39.594Z,47.35
2022-12-08T19:40:26.939Z,48.80
2022-12-08T19:46:09.890Z,80.77
2022-12-08T19:48:38.561Z,113.60
2022-12-08T19:51:35.110Z,61.65
2022-12-08T19:54:03.612Z,46.00
2022-12-08T19:56:31.388Z,50.95
2022-12-08T19:58:59.656Z,51.67
2022-12-08T20:01:27.627Z,48.00
2022-12-08T20:03:55.939Z,54.78
2022-12-08T20:06:25.074Z,53.35
2022-12-08T20:08:54.400Z,51.50
2022-12-08T20:12:12.599Z,54.47
2022-12-08T20:15:06.694Z,57.30
2022-12-08T20:17:35.103Z,61.08
2022-12-08T20:20:07.049Z,58.85
2022-12-08T20:22:36.172Z,60.53
2022-12-08T20:25:04.733Z,63.57
2022-12-08T20:27:33.855Z,62.88
2022-12-08T20:30:02.100Z,69.55
2022-12-08T20:32:30.210Z,69.13
2022-12-08T20:34:58.535Z,70.47
2022-12-08T20:37:28.591Z,83.17
2022-12-08T20:39:56.913Z,72.45
2022-12-08T20:42:24.634Z,81.63
2022-12-08T20:44:52.891Z,73.47
2022-12-08T20:47:20.941Z,78.70
2022-12-08T20:49:49.383Z,81.77
2022-12-08T20:52:17.130Z,92.80
2022-12-08T20:55:11.298Z,91.82
2022-12-08T20:57:39.273Z,83.65
2022-12-08T21:00:08.424Z,82.93
2022-12-08T21:03:28.119Z,82.60
2022-12-08T21:05:56.501Z,87.30
2022-12-08T21:08:27.249Z,83.57
2022-12-08T21:10:57.032Z,81.88
2022-12-08T21:13:25.869Z,90.45
2022-12-08T21:15:54.537Z,87.30
2022-12-08T21:18:24.493Z,86.80
2022-12-08T21:20:53.524Z,84.75
2022-12-08T21:23:21.209Z,80.88
2022-12-08T21:25:50.288Z,87.90
2022-12-08T21:28:18.133Z,92.70
2022-12-08T21:30:46.530Z,89.50
2022-12-08T21:33:14.421Z,82.80
2022-12-08T21:35:42.808Z,83.63
2022-12-08T21:38:10.857Z,80.15
2022-12-08T21:40:39.322Z,77.77
2022-12-08T21:43:07.278Z,82.25
2022-12-08T21:45:35.845Z,102.65
2022-12-08T21:48:11.434Z,115.75
2022-12-08T21:50:40.837Z,76.80
2022-12-08T21:53:09.088Z,89.60
2022-12-08T21:55:37.295Z,93.07
2022-12-08T21:58:05.925Z,95.60
2022-12-08T22:00:34.428Z,97.93
2022-12-08T22:03:02.846Z,84.25
2022-12-08T22:05:31.827Z,70.87
2022-12-08T22:07:59.773Z,74.55
2022-12-08T22:10:28.042Z,76.38
2022-12-08T22:12:55.898Z,77.25
2022-12-08T22:15:26.471Z,74.50
2022-12-08T22:17:54.451Z,84.47
2022-12-08T22:20:22.757Z,74.28
2022-12-08T22:22:50.757Z,79.10
2022-12-08T22:25:18.985Z,85.70
2022-12-08T22:27:47.169Z,79.57
2022-12-08T22:30:15.395Z,83.57
2022-12-08T22:32:43.287Z,74.43
2022-12-08T22:35:11.441Z,67.15
2022-12-08T22:37:39.823Z,61.95
2022-12-08T22:40:09.018Z,65.57
2022-12-08T22:42:37.002Z,64.20
2022-12-08T22:45:05.603Z,64.30
2022-12-08T22:47:33.536Z,56.03
2022-12-08T22:50:02.430Z,57.20
2022-12-08T22:52:31.606Z,52.97
2022-12-08T22:54:59.639Z,51.37
2022-12-08T22:57:28.822Z,58.00
2022-12-08T22:59:57.232Z,51.83
2022-12-08T23:02:25.447Z,59.13
2022-12-08T23:04:57.782Z,55.15
2022-12-08T23:07:25.684Z,58.40
2022-12-08T23:09:53.668Z,58.10
2022-12-08T23:12:25.406Z,65.15
2022-12-08T23:14:53.658Z,84.00
2022-12-08T23:17:24.637Z,86.25
2022-12-08T23:19:52.863Z,85.37
2022-12-08T23:22:20.793Z,88.93
2022-12-08T23:24:49.075Z,81.63
2022-12-08T23:27:16.730Z,85.65
2022-12-08T23:29:44.910Z,92.78
2022-12-08T23:32:13.864Z,91.33
2022-12-08T23:34:42.228Z,91.10
2022-12-08T23:37:12.650Z,84.93
2022-12-08T23:39:40.952Z,80.05
2022-12-08T23:42:08.734Z,81.55
2022-12-08T23:44:36.871Z,76.80
2022-12-08T23:47:05.012Z,69.63
2022-12-08T23:49:34.365Z,72.57
2022-12-08T23:52:02.070Z,65.15
2022-12-08T23:54:30.484Z,71.03
2022-12-08T23:56:58.156Z,69.50
2022-12-08T23:59:26.459Z,70.70
